Time;durP1;ratioP1;P1;durP2;ratioP2;P2;SDS_P1;SDS_P2;PMS_P1;PMS_P2;Temp;Humidity;BMP_temperature;BMP_pressure;BME280_temperature;BME280_humidity;BME280_pressure;Samples;Min_cycle;Max_cycle;Signal;HPM_P1;HPM_P2
2024/01/20 00:00:25;;;;;;;31.50;12.07;;;;;;;2.60;60.21;102571.84;4872030;28;123959;-73
2024/01/20 00:02:52;;;;;;;33.03;12.18;;;;;;;2.61;60.27;102573.63;4859588;28;118339;-73
2024/01/20 00:05:20;;;;;;;23.77;10.55;;;;;;;2.62;60.55;102575.34;4875290;28;118865;-73
2024/01/20 00:07:48;;;;;;;25.70;10.65;;;;;;;2.64;60.44;102576.28;4866839;28;122907;-73
2024/01/20 00:10:16;;;;;;;31.35;11.63;;;;;;;2.64;60.47;102574.53;4857670;28;122713;-73
2024/01/20 00:12:43;;;;;;;28.20;11.38;;;;;;;2.65;60.52;102578.03;4874253;28;119167;-73
2024/01/20 00:15:11;;;;;;;28.58;10.77;;;;;;;2.67;60.68;102579.81;4872410;28;118747;-73
2024/01/20 00:17:40;;;;;;;27.42;11.38;;;;;;;2.69;60.51;102579.84;4868902;28;123890;-73
2024/01/20 00:20:09;;;;;;;31.13;10.93;;;;;;;2.71;60.65;102583.34;4856832;28;122014;-73
2024/01/20 00:22:37;;;;;;;30.95;11.13;;;;;;;2.73;60.51;102589.47;4872190;28;119027;-74
2024/01/20 00:25:05;;;;;;;28.73;9.85;;;;;;;2.74;60.65;102580.78;4861578;28;119300;-73
2024/01/20 00:27:33;;;;;;;25.85;10.63;;;;;;;2.77;60.64;102580.84;4845696;28;123365;-73
2024/01/20 00:30:03;;;;;;;28.75;11.10;;;;;;;2.79;60.80;102579.13;4847770;28;123735;-74
2024/01/20 00:32:31;;;;;;;27.38;11.23;;;;;;;2.79;60.50;102589.59;4836115;28;119430;-73
2024/01/20 00:34:58;;;;;;;27.23;10.73;;;;;;;2.80;60.74;102591.34;4867161;28;120529;-73
2024/01/20 00:37:36;;;;;;;30.35;11.50;;;;;;;2.82;60.65;102588.75;4854001;28;123329;-74
2024/01/20 00:40:05;;;;;;;24.33;10.90;;;;;;;2.83;60.76;102586.16;4865664;28;125238;-73
2024/01/20 00:42:33;;;;;;;26.95;9.98;;;;;;;2.84;60.58;102585.28;4842571;28;119186;-73
2024/01/20 00:45:00;;;;;;;27.85;10.02;;;;;;;2.84;60.85;102582.69;4864396;28;119348;-73
2024/01/20 00:47:27;;;;;;;26.77;10.45;;;;;;;2.86;60.83;102575.75;4854626;28;123175;-73
2024/01/20 00:49:55;;;;;;;22.00;9.77;;;;;;;2.88;60.91;102574.03;4866027;28;123758;-73
2024/01/20 00:52:22;;;;;;;26.42;10.10;;;;;;;2.89;60.90;102570.56;4856843;28;119128;-73
2024/01/20 00:54:51;;;;;;;29.50;9.93;;;;;;;2.90;60.63;102572.31;4868550;28;120364;-74
2024/01/20 00:57:18;;;;;;;26.02;10.23;;;;;;;2.90;60.77;102567.09;4867626;28;123809;-74
2024/01/20 00:59:46;;;;;;;26.30;9.82;;;;;;;2.90;60.86;102561.84;4853586;28;124158;-74
2024/01/20 01:02:16;;;;;;;26.33;10.02;;;;;;;2.91;60.74;102568.84;4866259;28;120070;-74
2024/01/20 01:04:44;;;;;;;29.42;10.50;;;;;;;2.91;60.89;102574.06;4848812;28;118600;-74
2024/01/20 01:07:12;;;;;;;24.48;9.80;;;;;;;2.92;61.31;102573.22;4868606;28;125425;-74
2024/01/20 01:09:39;;;;;;;24.13;9.35;;;;;;;2.93;60.73;102576.72;4868590;28;123848;-73
2024/01/20 01:12:06;;;;;;;24.38;9.10;;;;;;;2.92;60.97;102570.59;4868327;28;119463;-73
2024/01/20 01:14:34;;;;;;;32.33;10.55;;;;;;;2.95;60.97;102566.28;4839267;28;118626;-73
2024/01/20 01:17:01;;;;;;;22.20;8.55;;;;;;;2.96;60.95;102575.88;4820932;28;123312;-74
2024/01/20 01:19:28;;;;;;;27.00;9.00;;;;;;;2.97;60.92;102572.41;4865890;28;124013;-73
2024/01/20 01:21:55;;;;;;;26.77;10.13;;;;;;;2.99;60.89;102575.91;4855893;28;119921;-74
2024/01/20 01:24:22;;;;;;;21.00;9.68;;;;;;;3.00;60.79;102577.69;4868632;28;120657;-73
2024/01/20 01:26:49;;;;;;;24.23;9.10;;;;;;;2.99;60.70;102578.53;4867582;28;124550;-73
2024/01/20 01:29:16;;;;;;;25.10;8.90;;;;;;;2.99;60.67;102570.69;4854816;28;123523;-73
2024/01/20 01:31:44;;;;;;;22.30;9.57;;;;;;;2.99;60.59;102575.91;4864972;28;118814;-74
2024/01/20 01:34:12;;;;;;;22.85;9.02;;;;;;;2.98;60.76;102571.56;4867310;28;118851;-73
2024/01/20 01:36:39;;;;;;;21.75;9.10;;;;;;;2.98;60.85;102579.41;4854670;28;124338;-74
2024/01/20 01:39:06;;;;;;;19.58;9.02;;;;;;;2.99;60.75;102589.00;4840611;28;123205;-74
2024/01/20 01:41:33;;;;;;;21.40;8.85;;;;;;;2.98;60.75;102596.00;4871497;28;120082;-74
2024/01/20 01:44:02;;;;;;;20.45;9.13;;;;;;;2.97;60.56;102603.81;4872323;28;119414;-72
2024/01/20 01:46:30;;;;;;;22.73;9.02;;;;;;;2.93;60.74;102603.75;4871994;28;124526;-72
2024/01/20 01:48:57;;;;;;;24.40;9.20;;;;;;;2.92;60.80;102607.25;4870180;28;123675;-72
2024/01/20 01:51:24;;;;;;;23.50;9.02;;;;;;;2.91;60.78;102605.47;4869709;28;119453;-72
2024/01/20 01:53:52;;;;;;;24.60;9.63;;;;;;;2.90;60.71;102608.97;4849797;28;119156;-72
2024/01/20 01:56:19;;;;;;;22.38;8.63;;;;;;;2.90;60.81;102608.97;4871314;28;125168;-72
2024/01/20 01:58:47;;;;;;;20.33;8.68;;;;;;;2.89;60.81;102601.09;4854338;28;124665;-72
2024/01/20 02:01:14;;;;;;;25.65;9.63;;;;;;;2.87;60.96;102616.75;4856383;28;119722;-73
2024/01/20 02:03:41;;;;;;;25.35;9.57;;;;;;;2.85;60.95;102613.25;4871331;28;119028;-73
2024/01/20 02:06:09;;;;;;;26.80;9.77;;;;;;;2.85;60.72;102621.09;4868881;28;123184;-73
2024/01/20 02:08:39;;;;;;;26.88;9.85;;;;;;;2.83;60.67;102622.81;4852960;28;122895;-73
2024/01/20 02:11:07;;;;;;;21.17;8.75;;;;;;;2.82;60.82;102615.78;4843398;28;120803;-73
2024/01/20 02:13:35;;;;;;;22.25;8.98;;;;;;;2.82;60.83;102621.03;4869876;28;119999;-73
2024/01/20 02:16:03;;;;;;;23.25;8.93;;;;;;;2.83;60.78;102624.53;4869925;28;124731;-73
2024/01/20 02:18:30;;;;;;;23.88;8.95;;;;;;;2.82;60.99;102630.63;4869344;28;124482;-73
2024/01/20 02:20:58;;;;;;;27.33;9.13;;;;;;;2.79;60.96;102628.84;4853612;28;118533;-73
2024/01/20 02:23:25;;;;;;;23.38;8.55;;;;;;;2.79;60.68;102636.69;4868934;28;117983;-72
2024/01/20 02:25:53;;;;;;;20.80;8.40;;;;;;;2.78;60.88;102634.91;4867654;28;124783;-73
2024/01/20 02:28:20;;;;;;;18.08;7.80;;;;;;;2.78;60.81;102632.31;4853577;28;123512;-73
2024/01/20 02:30:48;;;;;;;22.65;9.32;;;;;;;2.78;60.92;102634.91;4867147;28;119235;-72
2024/01/20 02:33:15;;;;;;;23.70;8.98;;;;;;;2.78;60.92;102628.81;4857910;28;119789;-73
2024/01/20 02:35:42;;;;;;;19.42;8.10;;;;;;;2.78;61.02;102624.47;4869988;28;124614;-73
2024/01/20 02:38:10;;;;;;;22.30;8.10;;;;;;;2.78;60.79;102640.16;4856997;28;123657;-73
2024/01/20 02:40:37;;;;;;;19.02;8.30;;;;;;;2.77;60.80;102641.03;4870998;28;119658;-73
2024/01/20 02:43:04;;;;;;;28.90;9.05;;;;;;;2.78;60.65;102645.38;4862284;28;118117;-73
2024/01/20 02:45:31;;;;;;;18.58;8.55;;;;;;;2.78;60.69;102640.16;4868842;28;123734;-73
2024/01/20 02:47:58;;;;;;;23.88;8.00;;;;;;;2.77;60.77;102638.41;4868300;28;124303;-73
2024/01/20 02:50:26;;;;;;;20.02;8.00;;;;;;;2.77;61.01;102635.78;4867045;28;120034;-73
2024/01/20 02:52:53;;;;;;;23.02;9.10;;;;;;;2.77;60.74;102633.19;4868435;28;119005;-73
2024/01/20 02:55:20;;;;;;;25.08;9.25;;;;;;;2.75;60.80;102632.28;4868296;28;121896;-73
2024/01/20 02:57:47;;;;;;;24.00;8.20;;;;;;;2.75;61.03;102634.91;4842062;28;123877;-73
2024/01/20 03:00:15;;;;;;;19.98;7.97;;;;;;;2.74;60.58;102627.88;4865548;28;119020;-73
2024/01/20 03:02:42;;;;;;;21.48;8.30;;;;;;;2.74;60.77;102635.72;4854234;28;120372;-73
2024/01/20 03:05:11;;;;;;;20.40;8.75;;;;;;;2.71;60.81;102627.81;4869596;28;124116;-73
2024/01/20 03:07:38;;;;;;;19.27;8.35;;;;;;;2.69;60.85;102632.16;4869237;28;123632;-73
2024/01/20 03:10:06;;;;;;;21.83;8.48;;;;;;;2.68;60.90;102639.13;4840413;28;118661;-73
2024/01/20 03:12:33;;;;;;;22.65;8.77;;;;;;;2.67;60.85;102633.88;4852798;28;119180;-73
2024/01/20 03:15:00;;;;;;;19.00;8.57;;;;;;;2.66;60.94;102634.75;4865613;28;124017;-73
2024/01/20 03:17:27;;;;;;;20.55;8.70;;;;;;;2.65;60.68;102632.97;4868801;28;124436;-73
2024/01/20 03:19:55;;;;;;;30.50;8.95;;;;;;;2.64;60.83;102636.44;4866938;28;119188;-73
2024/01/20 03:22:23;;;;;;;21.15;8.70;;;;;;;2.65;60.83;102638.19;4857049;28;119039;-73
2024/01/20 03:24:50;;;;;;;19.95;8.35;;;;;;;2.65;61.04;102649.53;4852611;28;124015;-73
2024/01/20 03:27:18;;;;;;;22.05;8.45;;;;;;;2.66;60.81;102655.66;4868417;28;123483;-73
2024/01/20 03:29:45;;;;;;;20.70;8.63;;;;;;;2.66;60.87;102650.44;4852288;28;119526;-73
2024/01/20 03:32:12;;;;;;;22.17;8.45;;;;;;;2.66;61.41;102653.91;4842254;28;119394;-73
2024/01/20 03:34:39;;;;;;;21.27;8.73;;;;;;;2.66;60.78;102660.91;4836380;28;124106;-73
2024/01/20 03:37:07;;;;;;;27.50;9.27;;;;;;;2.67;61.14;102662.63;4869842;28;123900;-73
2024/01/20 03:39:34;;;;;;;19.83;8.00;;;;;;;2.68;60.89;102669.66;4869556;28;119658;-73
2024/01/20 03:42:02;;;;;;;21.05;8.77;;;;;;;2.68;61.04;102660.06;4869737;28;120575;-73
2024/01/20 03:44:29;;;;;;;22.13;8.40;;;;;;;2.69;60.86;102653.09;4837779;28;123008;-73
2024/01/20 03:46:56;;;;;;;19.70;8.02;;;;;;;2.71;60.97;102648.75;4867904;28;123198;-73
2024/01/20 03:49:23;;;;;;;19.88;8.27;;;;;;;2.71;60.99;102660.13;4869044;28;120900;-73
2024/01/20 03:51:51;;;;;;;23.90;8.35;;;;;;;2.72;60.90;102671.47;4868068;28;119753;-73
2024/01/20 03:54:18;;;;;;;22.23;8.65;;;;;;;2.73;61.23;102665.34;4854066;28;123613;-73
2024/01/20 03:56:45;;;;;;;27.80;9.13;;;;;;;2.73;61.18;102662.72;4867623;28;124436;-73
2024/01/20 03:59:12;;;;;;;23.65;8.70;;;;;;;2.74;60.98;102654.03;4857011;28;118077;-73
2024/01/20 04:01:39;;;;;;;22.08;8.32;;;;;;;2.75;61.23;102666.28;4869324;28;118978;-73
2024/01/20 04:04:07;;;;;;;23.05;8.57;;;;;;;2.76;61.14;102652.34;4855846;28;123635;-73
2024/01/20 04:06:34;;;;;;;23.55;8.60;;;;;;;2.77;61.13;102654.09;4856226;28;123550;-73
2024/01/20 04:09:01;;;;;;;20.95;7.60;;;;;;;2.76;61.09;102662.81;4867030;28;118976;-73
2024/01/20 04:11:28;;;;;;;19.10;8.13;;;;;;;2.77;61.13;102654.09;4869202;28;119931;-73
2024/01/20 04:13:55;;;;;;;22.08;8.63;;;;;;;2.80;61.37;102668.97;4868953;28;124461;-73
2024/01/20 04:16:23;;;;;;;16.63;7.55;;;;;;;2.79;61.18;102651.50;4868860;28;124124;-73
2024/01/20 04:18:50;;;;;;;19.95;8.15;;;;;;;2.81;61.28;102653.28;4866923;28;118417;-73
2024/01/20 04:21:17;;;;;;;23.60;8.68;;;;;;;2.81;61.35;102655.91;4869338;28;118674;-73
2024/01/20 04:23:44;;;;;;;18.15;8.13;;;;;;;2.82;61.37;102657.66;4854484;28;123920;-73
2024/01/20 04:26:11;;;;;;;21.55;8.32;;;;;;;2.83;61.50;102658.56;4868900;28;124677;-73
2024/01/20 04:28:38;;;;;;;19.02;8.27;;;;;;;2.85;61.26;102662.94;4868583;28;119421;-73
2024/01/20 04:31:05;;;;;;;19.88;8.18;;;;;;;2.84;61.04;102666.41;4868925;28;118685;-73
2024/01/20 04:33:34;;;;;;;19.65;7.95;;;;;;;2.84;61.14;102666.41;4872687;28;122925;-72
2024/01/20 04:36:02;;;;;;;23.67;8.30;;;;;;;2.81;61.08;102666.38;4860271;28;122085;-73
2024/01/20 04:38:29;;;;;;;19.65;7.95;;;;;;;2.82;61.04;102678.59;4858284;28;119759;-73
2024/01/20 04:40:57;;;;;;;18.20;8.43;;;;;;;2.83;61.37;102675.13;4861015;28;119855;-73
2024/01/20 04:43:24;;;;;;;17.52;7.53;;;;;;;2.84;61.20;102676.00;4842308;28;122194;-72
2024/01/20 04:45:51;;;;;;;18.23;8.60;;;;;;;2.83;61.11;102675.13;4857140;28;123828;-73
2024/01/20 04:48:19;;;;;;;23.90;7.65;;;;;;;2.85;61.21;102673.41;4877024;28;119601;-73
2024/01/20 04:50:47;;;;;;;19.75;7.70;;;;;;;2.85;60.95;102685.63;4873040;28;118854;-72
2024/01/20 04:53:14;;;;;;;20.42;7.68;;;;;;;2.86;61.17;102685.66;4868267;28;123559;-73
2024/01/20 04:55:41;;;;;;;18.52;7.30;;;;;;;2.86;61.29;102690.91;4851475;28;123736;-73
2024/01/20 04:58:08;;;;;;;20.20;8.27;;;;;;;2.85;61.21;102689.13;4855749;28;120178;-73
2024/01/20 05:00:35;;;;;;;20.30;8.20;;;;;;;2.85;61.26;102694.34;4845176;28;120204;-73
2024/01/20 05:03:03;;;;;;;20.27;7.70;;;;;;;2.85;61.38;102699.59;4839522;28;124995;-73
2024/01/20 05:05:30;;;;;;;20.48;8.18;;;;;;;2.85;61.24;102699.59;4867436;28;124436;-73
2024/01/20 05:07:58;;;;;;;17.95;7.82;;;;;;;2.87;61.36;102699.63;4868143;28;118996;-73
2024/01/20 05:10:25;;;;;;;22.08;8.40;;;;;;;2.89;61.12;102696.16;4869124;28;119157;-73
2024/01/20 05:12:52;;;;;;;17.95;7.78;;;;;;;2.89;61.08;102701.41;4869120;28;124856;-73
2024/01/20 05:15:20;;;;;;;22.60;8.23;;;;;;;2.90;61.37;102708.41;4870967;28;124232;-72
2024/01/20 05:17:47;;;;;;;20.65;7.55;;;;;;;2.92;61.30;102711.94;4869176;28;119986;-73
2024/01/20 05:20:15;;;;;;;20.83;8.38;;;;;;;2.93;61.35;102708.44;4871994;28;119091;-73
2024/01/20 05:22:42;;;;;;;15.95;7.45;;;;;;;2.93;61.51;102713.66;4858214;28;124935;-73
2024/01/20 05:25:09;;;;;;;19.38;8.13;;;;;;;2.95;61.34;102710.22;4872448;28;125121;-73
2024/01/20 05:27:37;;;;;;;17.02;7.68;;;;;;;2.96;61.54;102711.97;4854095;28;121054;-73
2024/01/20 05:30:05;;;;;;;17.27;7.15;;;;;;;2.97;61.31;102718.97;4872181;28;119879;-73
2024/01/20 05:32:32;;;;;;;21.17;8.40;;;;;;;3.00;61.19;102729.50;4858072;28;124729;-73
2024/01/20 05:35:00;;;;;;;15.18;7.25;;;;;;;3.00;61.28;102724.28;4858193;28;124797;-73
2024/01/20 05:37:27;;;;;;;20.00;7.82;;;;;;;3.01;61.19;102731.25;4856459;28;120835;-73
2024/01/20 05:39:54;;;;;;;16.70;8.02;;;;;;;3.01;61.08;102734.72;4871726;28;119158;-73
2024/01/20 05:42:21;;;;;;;18.98;7.93;;;;;;;3.03;61.26;102729.53;4855033;28;123919;-73
2024/01/20 05:44:48;;;;;;;19.75;8.00;;;;;;;3.03;61.40;102727.81;4856091;28;122825;-73
2024/01/20 05:47:16;;;;;;;25.20;8.73;;;;;;;3.06;61.41;102729.59;4853095;28;118789;-73
2024/01/20 05:49:43;;;;;;;17.42;7.78;;;;;;;3.06;61.40;102734.84;4855088;28;121845;-73
2024/01/20 05:52:10;;;;;;;17.75;8.18;;;;;;;3.06;61.25;102730.47;4861583;28;123407;-72
2024/01/20 05:54:37;;;;;;;20.35;8.30;;;;;;;3.06;61.25;102737.44;4854338;28;124923;-73
2024/01/20 05:57:05;;;;;;;18.45;8.32;;;;;;;3.05;61.54;102733.06;4870488;28;119422;-73
2024/01/20 05:59:32;;;;;;;24.60;8.90;;;;;;;3.05;61.18;102722.59;4857248;28;118621;-73
2024/01/20 06:01:59;;;;;;;16.42;7.85;;;;;;;3.04;61.46;102731.31;4838628;28;125948;-73
2024/01/20 06:04:27;;;;;;;17.73;7.22;;;;;;;3.03;61.11;102729.53;4854303;28;124616;-73
2024/01/20 06:06:54;;;;;;;19.23;8.25;;;;;;;3.04;61.39;102744.41;4871377;28;120775;-73
2024/01/20 06:09:21;;;;;;;20.25;8.27;;;;;;;3.06;61.28;102740.06;4853852;28;119642;-73
2024/01/20 06:11:49;;;;;;;22.45;8.65;;;;;;;3.07;61.33;102747.94;4870029;28;124485;-72
2024/01/20 06:14:16;;;;;;;23.58;9.52;;;;;;;3.08;61.37;102743.59;4871192;28;123216;-73
2024/01/20 06:16:43;;;;;;;23.30;8.73;;;;;;;3.08;61.38;102743.59;4853888;28;121376;-72
2024/01/20 06:19:10;;;;;;;23.52;8.45;;;;;;;3.08;61.23;102738.34;4842369;28;120687;-75
2024/01/20 06:21:38;;;;;;;20.50;8.35;;;;;;;3.09;61.13;102750.59;4867177;28;124135;-73
2024/01/20 06:24:05;;;;;;;23.20;9.82;;;;;;;3.08;61.11;102748.81;4868559;28;124822;-74
2024/01/20 06:26:32;;;;;;;20.85;8.35;;;;;;;3.07;61.04;102755.81;4868604;28;120181;-73
2024/01/20 06:29:00;;;;;;;20.90;8.40;;;;;;;3.08;61.38;102756.69;4870194;28;119412;-74
2024/01/20 06:31:28;;;;;;;18.25;8.25;;;;;;;3.08;61.20;102759.28;4856154;28;124022;-74
2024/01/20 06:33:55;;;;;;;19.13;8.60;;;;;;;3.09;61.15;102750.59;4869770;28;124769;-74
2024/01/20 06:36:25;;;;;;;22.73;7.85;;;;;;;3.08;61.15;102754.06;4868898;28;120915;-73
2024/01/20 06:38:53;;;;;;;20.33;8.77;;;;;;;3.07;61.54;102755.81;4823414;28;118301;-74
2024/01/20 06:41:20;;;;;;;22.98;8.63;;;;;;;3.08;61.38;102759.28;4869537;28;124306;-73
2024/01/20 06:43:47;;;;;;;19.30;7.80;;;;;;;3.07;61.23;102762.75;4869203;28;124235;-74
2024/01/20 06:46:15;;;;;;;18.83;7.95;;;;;;;3.07;61.22;102757.50;4870586;28;119542;-74
2024/01/20 06:48:42;;;;;;;25.42;8.80;;;;;;;3.06;61.33;102763.63;4859602;28;118868;-74
2024/01/20 06:51:14;;;;;;;20.00;8.27;;;;;;;3.04;61.29;102762.72;4855643;28;125711;-74
2024/01/20 06:53:43;;;;;;;20.17;8.30;;;;;;;3.04;61.19;102762.72;4868161;28;122868;-73
2024/01/20 06:56:11;;;;;;;22.73;8.73;;;;;;;3.05;61.48;102759.22;4856147;28;119679;-74
2024/01/20 06:58:39;;;;;;;17.80;8.18;;;;;;;3.05;61.35;102756.63;4850122;28;117151;-74
2024/01/20 07:01:06;;;;;;;21.42;9.27;;;;;;;3.06;61.24;102750.53;4867727;28;125326;-74
2024/01/20 07:03:33;;;;;;;18.85;8.30;;;;;;;3.06;61.33;102761.00;4865981;28;124002;-74
2024/01/20 07:06:00;;;;;;;17.58;8.23;;;;;;;3.04;61.38;102768.81;4868638;28;120023;-74
2024/01/20 07:08:28;;;;;;;25.55;8.85;;;;;;;3.04;61.15;102767.97;4853165;28;119972;-74
2024/01/20 07:10:56;;;;;;;21.55;7.95;;;;;;;3.02;61.46;102765.31;4868430;28;123876;-74
2024/01/20 07:13:23;;;;;;;21.00;8.30;;;;;;;3.02;61.60;102778.41;4855057;28;125880;-73
2024/01/20 07:15:50;;;;;;;22.48;9.10;;;;;;;3.02;61.18;102780.13;4845045;28;120671;-74
2024/01/20 07:18:17;;;;;;;15.75;7.90;;;;;;;3.01;61.34;102773.13;4863327;28;119272;-74
2024/01/20 07:20:44;;;;;;;21.65;7.95;;;;;;;3.01;61.51;102771.38;4867366;28;123638;-74
2024/01/20 07:23:12;;;;;;;16.23;8.05;;;;;;;3.01;61.28;102773.13;4852045;28;125012;-74
2024/01/20 07:25:39;;;;;;;19.75;7.30;;;;;;;3.00;61.27;102781.84;4869082;28;119179;-74
2024/01/20 07:28:06;;;;;;;17.85;7.75;;;;;;;2.98;61.25;102783.56;4865472;28;119034;-74
2024/01/20 07:30:34;;;;;;;17.20;7.90;;;;;;;2.97;61.26;102776.53;4858130;28;124906;-74
2024/01/20 07:33:01;;;;;;;22.15;7.75;;;;;;;2.97;61.52;102773.94;4848622;28;124595;-74
2024/01/20 07:35:29;;;;;;;22.98;9.73;;;;;;;2.97;61.38;102771.31;4867435;28;118991;-72
2024/01/20 07:37:56;;;;;;;20.98;8.55;;;;;;;2.96;61.29;102783.53;4846396;28;121515;-72
2024/01/20 07:40:23;;;;;;;19.73;8.45;;;;;;;2.96;61.29;102783.53;4861170;28;125290;-74
2024/01/20 07:42:51;;;;;;;16.30;7.85;;;;;;;2.95;61.24;102778.25;4862890;28;125822;-72
2024/01/20 07:45:18;;;;;;;22.45;8.45;;;;;;;2.92;61.27;102785.22;4850310;28;121216;-72
2024/01/20 07:47:46;;;;;;;21.52;8.60;;;;;;;2.93;61.61;102783.47;4869838;28;118760;-72
2024/01/20 07:50:14;;;;;;;17.40;7.70;;;;;;;2.93;61.59;102786.06;4868586;28;124315;-72
2024/01/20 07:52:41;;;;;;;19.98;8.57;;;;;;;2.92;61.44;102793.06;4853888;28;124068;-72
2024/01/20 07:55:08;;;;;;;17.05;8.18;;;;;;;2.91;61.70;102791.28;4865792;28;120647;-72
2024/01/20 07:57:36;;;;;;;22.92;9.02;;;;;;;2.93;61.38;102797.41;4855607;28;121058;-73
2024/01/20 08:00:04;;;;;;;20.10;9.13;;;;;;;2.95;61.36;102793.97;4846843;28;124064;-73
2024/01/20 08:02:34;;;;;;;31.45;10.27;;;;;;;2.97;61.58;102797.50;4846094;28;124476;-72
2024/01/20 08:05:01;;;;;;;23.17;9.65;;;;;;;2.99;61.25;102801.00;4866244;28;119068;-73
2024/01/20 08:07:28;;;;;;;23.38;9.85;;;;;;;2.98;61.47;102799.25;4866578;28;118469;-73
2024/01/20 08:09:55;;;;;;;25.80;10.18;;;;;;;2.99;61.44;102801.00;4850532;28;123876;-72
2024/01/20 08:12:22;;;;;;;20.67;8.77;;;;;;;2.99;61.54;102808.88;4852916;28;124669;-72
2024/01/20 08:14:50;;;;;;;24.92;10.07;;;;;;;3.00;61.52;102808.03;4858650;28;120094;-73
2024/01/20 08:17:18;;;;;;;25.58;9.27;;;;;;;2.99;61.38;102807.13;4853261;28;118857;-72
2024/01/20 08:19:45;;;;;;;19.15;8.85;;;;;;;3.00;61.44;102808.03;4852447;28;124701;-73
2024/01/20 08:22:13;;;;;;;23.75;9.23;;;;;;;3.00;61.58;102810.63;4840650;28;124162;-72
2024/01/20 08:24:40;;;;;;;22.13;9.73;;;;;;;3.02;61.61;102806.31;4862096;28;119943;-73
2024/01/20 08:27:08;;;;;;;27.42;10.70;;;;;;;3.04;61.90;102812.47;4866682;28;118288;-72
2024/01/20 08:29:35;;;;;;;25.90;9.15;;;;;;;3.04;61.53;102813.31;4851410;28;123919;-73
2024/01/20 08:32:03;;;;;;;22.30;9.90;;;;;;;3.06;61.74;102818.59;4869220;28;123692;-72
2024/01/20 08:34:30;;;;;;;18.52;8.90;;;;;;;3.05;61.68;102822.06;4869923;28;118892;-73
2024/01/20 08:36:57;;;;;;;18.50;8.75;;;;;;;3.05;61.47;102827.28;4867754;28;119411;-73
2024/01/20 08:39:25;;;;;;;25.98;9.55;;;;;;;3.04;61.52;102825.53;4864607;28;125525;-73
2024/01/20 08:41:52;;;;;;;25.25;10.18;;;;;;;3.05;61.49;102827.28;4866315;28;124802;-72
2024/01/20 08:44:19;;;;;;;16.80;8.82;;;;;;;3.04;61.41;102825.53;4868292;28;120661;-73
2024/01/20 08:46:47;;;;;;;23.67;9.27;;;;;;;3.06;61.65;102829.06;4865847;28;119415;-73
2024/01/20 08:49:15;;;;;;;20.90;9.77;;;;;;;3.08;61.75;102837.81;4833212;29;124819;-73
2024/01/20 08:51:42;;;;;;;23.63;9.75;;;;;;;3.11;61.74;102837.91;4859142;28;124550;-73
2024/01/20 08:54:09;;;;;;;20.58;9.25;;;;;;;3.15;61.63;102839.72;4872189;28;118581;-73
2024/01/20 08:56:36;;;;;;;21.75;9.63;;;;;;;3.19;61.50;102843.28;4843107;28;118688;-73
2024/01/20 08:59:04;;;;;;;20.73;9.30;;;;;;;3.20;61.73;102853.78;4875940;28;124792;-73
2024/01/20 09:01:31;;;;;;;27.90;9.73;;;;;;;3.21;61.67;102852.03;4860343;28;123032;-73
2024/01/20 09:04:00;;;;;;;26.95;9.65;;;;;;;3.21;61.68;102847.66;4874843;28;118706;-72
2024/01/20 09:06:27;;;;;;;23.77;10.30;;;;;;;3.23;61.74;102843.34;4876930;28;119642;-73
2024/01/20 09:08:54;;;;;;;29.23;9.95;;;;;;;3.24;61.72;102850.34;4872719;28;123490;-73
2024/01/20 09:11:21;;;;;;;27.30;9.65;;;;;;;3.25;61.89;102852.09;4874327;28;124243;-72
2024/01/20 09:13:49;;;;;;;25.42;9.95;;;;;;;3.29;61.85;102851.28;4875683;28;120078;-72
2024/01/20 09:16:17;;;;;;;26.15;9.93;;;;;;;3.32;61.70;102847.88;4852000;28;120078;-73
2024/01/20 09:18:45;;;;;;;21.02;9.55;;;;;;;3.36;61.63;102854.03;4860265;28;122893;-73
2024/01/20 09:21:12;;;;;;;24.35;9.90;;;;;;;3.36;61.71;102854.03;4867338;28;125614;-73
2024/01/20 09:23:40;;;;;;;31.40;10.25;;;;;;;3.40;61.64;102855.84;4852614;28;120286;-73
2024/01/20 09:26:08;;;;;;;25.95;10.20;;;;;;;3.42;61.76;102855.00;4870346;28;119177;-73
2024/01/20 09:28:35;;;;;;;26.23;10.95;;;;;;;3.45;61.89;102848.97;4878352;28;124091;-73
2024/01/20 09:31:03;;;;;;;28.48;11.38;;;;;;;3.45;61.73;102848.97;4875840;28;124950;-73
2024/01/20 09:33:34;;;;;;;28.42;10.90;;;;;;;3.42;61.34;102865.47;4855531;28;120933;-73
2024/01/20 09:36:03;;;;;;;23.75;9.70;;;;;;;3.41;61.28;102860.22;4852733;28;120766;-73
2024/01/20 09:38:30;;;;;;;26.08;9.95;;;;;;;3.38;61.35;102853.19;4849288;28;122412;-73
2024/01/20 09:40:58;;;;;;;23.60;9.75;;;;;;;3.40;61.43;102863.72;4844328;28;125584;-73
2024/01/20 09:43:25;;;;;;;28.13;9.82;;;;;;;3.41;61.67;102862.84;4869525;28;119000;-73
2024/01/20 09:45:53;;;;;;;26.17;8.80;;;;;;;3.46;61.68;102855.94;4855132;28;120445;-73
2024/01/20 09:48:21;;;;;;;28.27;10.20;;;;;;;3.50;61.68;102861.28;4845034;28;123682;-73
2024/01/20 09:50:49;;;;;;;31.25;12.10;;;;;;;3.53;61.32;102876.16;4865621;28;124484;-73
2024/01/20 09:53:17;;;;;;;31.00;11.55;;;;;;;3.54;61.47;102864.81;4869285;28;119432;-73
2024/01/20 09:55:45;;;;;;;26.50;10.77;;;;;;;3.55;61.61;102861.34;4836021;28;121238;-73
2024/01/20 09:58:14;;;;;;;28.83;11.55;;;;;;;3.53;61.49;102868.28;4848526;29;124226;-74
2024/01/20 10:00:42;;;;;;;31.55;11.65;;;;;;;3.54;61.57;102864.81;4868604;28;123545;-73
2024/01/20 10:03:11;;;;;;;28.52;10.98;;;;;;;3.55;61.38;102863.97;4848006;28;119272;-73
2024/01/20 10:05:38;;;;;;;27.50;9.77;;;;;;;3.56;61.65;102877.94;4838794;28;120007;-73
2024/01/20 10:08:06;;;;;;;27.55;9.95;;;;;;;3.56;61.59;102880.56;4859970;28;124383;-73
2024/01/20 10:10:34;;;;;;;29.42;9.85;;;;;;;3.58;61.56;102882.38;4869765;28;123753;-73
2024/01/20 10:13:01;;;;;;;26.00;10.00;;;;;;;3.62;61.76;102881.56;4869684;28;120367;-73
2024/01/20 10:15:30;;;;;;;25.52;9.50;;;;;;;3.63;61.65;102885.91;4842316;28;118614;-73
2024/01/20 10:18:10;;;;;;;28.25;9.95;;;;;;;3.65;61.79;102884.19;4851159;28;123524;-73
2024/01/20 10:20:39;;;;;;;25.00;9.82;;;;;;;3.67;61.55;102887.75;4838140;28;124730;-73
2024/01/20 10:23:07;;;;;;;20.35;8.63;;;;;;;3.66;61.33;102888.59;4851115;28;120934;-73
2024/01/20 10:25:34;;;;;;;22.00;8.63;;;;;;;3.67;61.35;102882.53;4869885;28;119381;-73
2024/01/20 10:28:02;;;;;;;20.67;8.82;;;;;;;3.70;61.39;102887.78;4868767;28;124654;-73
2024/01/20 10:30:30;;;;;;;27.48;9.77;;;;;;;3.74;61.49;102882.63;4858394;28;124598;-73
2024/01/20 10:32:59;;;;;;;21.45;8.75;;;;;;;3.79;61.65;102891.44;4847106;29;120495;-73
2024/01/20 10:35:37;;;;;;;23.23;9.20;;;;;;;3.82;61.43;102896.72;4852634;28;119354;-73
2024/01/20 10:38:10;;;;;;;25.92;9.07;;;;;;;3.86;61.55;102898.53;4852652;28;126636;-74
2024/01/20 10:40:41;;;;;;;22.23;9.48;;;;;;;3.89;61.47;102898.59;4859765;28;123747;-74
2024/01/20 10:43:14;;;;;;;22.55;8.98;;;;;;;3.87;61.53;102889.81;4870991;28;119167;-74
2024/01/20 10:45:59;;;;;;;26.85;9.65;;;;;;;3.85;61.22;102896.78;4858638;28;120725;-74
2024/01/20 10:48:28;;;;;;;22.58;9.75;;;;;;;3.87;61.24;102897.69;4851038;28;125097;-73
2024/01/20 10:50:58;;;;;;;24.55;9.20;;;;;;;3.90;61.72;102895.13;4864751;28;124668;-73
2024/01/20 10:53:26;;;;;;;23.13;9.77;;;;;;;3.93;61.58;102894.28;4847158;28;119779;-73
2024/01/20 10:55:54;;;;;;;24.40;9.05;;;;;;;3.96;61.54;102889.97;4858293;28;120352;-73
2024/01/20 10:58:35;;;;;;;26.17;9.73;;;;;;;3.98;61.51;102883.00;4865274;28;124878;-73
2024/01/20 11:01:03;;;;;;;25.25;9.48;;;;;;;4.00;61.24;102886.53;4851705;28;124167;-73
2024/01/20 11:03:31;;;;;;;26.42;9.52;;;;;;;4.01;61.54;102887.41;4850283;28;119962;-73
2024/01/20 11:05:58;;;;;;;25.02;9.50;;;;;;;4.05;61.57;102881.34;4867218;28;118757;-75
2024/01/20 11:08:26;;;;;;;22.88;9.65;;;;;;;4.05;61.17;102879.63;4853313;28;123222;-73
2024/01/20 11:10:54;;;;;;;19.92;9.27;;;;;;;4.07;61.62;102872.66;4861681;28;123832;-73
2024/01/20 11:13:26;;;;;;;22.90;9.75;;;;;;;4.12;61.55;102877.06;4865920;28;119955;-75
2024/01/20 11:15:55;;;;;;;23.48;9.63;;;;;;;4.19;61.56;102881.56;4866271;28;119500;-73
2024/01/20 11:18:23;;;;;;;22.45;9.48;;;;;;;4.25;61.30;102881.63;4846957;28;125522;-73